Decoded Metar for EKKA (KARUP in DENMARK) (IATA:KRP) | Meteo·Mobile Aviation Weather
aviador You're here:

EKKA Decoded Metar

KARUP in DENMARK
Report Time2019-08-24 13:50:00
UTC Time2019-08-24 14:16:57
Flight Rules vfr VFR
Wind120° at 05 kt
W.Decomp.*RWY 14: 4.7 kt HW 1.8 kt LCW
RWY 09: 4.4 kt HW 2.4 kt RCW
RWY 04: 1.0 kt HW 4.9 kt RCW
Visibility9999 m
Phenomena:N/A
Clouds:N/A
Expected CloudBase > 4,000 ft AGL from Temp-Dew spread
CeilingNone
Temp26°C (ISA +11)
Dew Point16°C (54% RH)
QNH1025 hPa
Density Alt1,322 ft
Elevation171 ft
Report Wrong Elevation
Raw Report
METAR EKKA 241350Z AUTO 12005KT 080V190 9999 NCD 26/16 Q1025=

Extra information for EKKA:More info

Metar Taf Metar & Taf Last 4 Metars F.Rules Stats Wind Profile Meteogram Temp Stats Airport Information Weather charts Add Link Nearby VenuesMetar ALERT Operation Metar Decoded Social comments